Time;durP1;ratioP1;P1;durP2;ratioP2;P2;SDS_P1;SDS_P2;PMS_P1;PMS_P2;Temp;Humidity;BMP_temperature;BMP_pressure;BME280_temperature;BME280_humidity;BME280_pressure;Samples;Min_cycle;Max_cycle;Signal;HPM_P1;HPM_P2
2021/11/21 00:01:04;;;;;;;23.33;20.40;;;;;;;9.66;96.03;101427.28;4994449;28;20044;-50
2021/11/21 00:03:32;;;;;;;23.88;21.27;;;;;;;9.64;94.72;101426.72;4994375;28;20126;-49
2021/11/21 00:05:59;;;;;;;24.55;21.90;;;;;;;9.58;94.66;101430.44;4975263;28;20053;-48
2021/11/21 00:08:27;;;;;;;25.55;20.95;;;;;;;9.57;94.62;101426.03;4991665;28;20042;-51
2021/11/21 00:10:57;;;;;;;20.85;17.75;;;;;;;9.57;95.02;101424.19;4994437;28;20054;-50
2021/11/21 00:13:24;;;;;;;24.25;21.50;;;;;;;9.65;94.73;101420.22;4993990;28;20056;-45
2021/11/21 00:15:52;;;;;;;22.70;20.20;;;;;;;9.56;94.66;101414.34;4994446;28;20038;-49
2021/11/21 00:18:20;;;;;;;23.45;20.65;;;;;;;9.56;94.65;101408.09;4993870;28;20038;-52
2021/11/21 00:20:48;;;;;;;20.52;15.93;;;;;;;9.54;94.64;101402.06;4994118;28;20054;-50
2021/11/21 00:23:15;;;;;;;22.85;20.17;;;;;;;9.55;94.96;101401.84;4993254;28;20039;-49
2021/11/21 00:25:43;;;;;;;23.33;19.60;;;;;;;9.56;94.53;101400.75;4993600;28;20052;-49
2021/11/21 00:28:11;;;;;;;21.52;18.55;;;;;;;9.55;94.74;101398.28;4993772;28;20054;-48
2021/11/21 00:30:38;;;;;;;23.35;19.17;;;;;;;9.52;94.62;101398.75;4992331;28;20646;-50
2021/11/21 00:33:06;;;;;;;22.92;19.95;;;;;;;9.56;94.54;101395.31;4994033;28;20421;-52
2021/11/21 00:35:34;;;;;;;22.63;19.33;;;;;;;9.54;94.62;101396.63;4993470;28;20122;-53
2021/11/21 00:38:02;;;;;;;20.33;17.10;;;;;;;9.59;94.75;101396.69;4993396;28;20047;-44
2021/11/21 00:40:29;;;;;;;18.35;14.27;;;;;;;9.57;94.63;101382.53;4993444;28;20417;-49
2021/11/21 00:42:57;;;;;;;12.05;8.30;;;;;;;9.59;95.42;101380.38;4993856;28;20409;-51
2021/11/21 00:45:27;;;;;;;22.75;19.77;;;;;;;9.68;95.38;101381.63;4993872;28;20046;-49
2021/11/21 00:47:55;;;;;;;20.42;18.10;;;;;;;9.77;96.62;101377.41;4993458;28;20077;-50
2021/11/21 00:50:29;;;;;;;22.85;20.13;;;;;;;9.66;94.55;101372.06;4993362;28;20053;-51
2021/11/21 00:53:02;;;;;;;19.50;16.35;;;;;;;9.60;94.81;101371.16;4993714;28;20448;-51
2021/11/21 00:55:39;;;;;;;15.45;12.95;;;;;;;9.63;96.04;101359.78;4993255;28;20074;-50
2021/11/21 00:58:10;;;;;;;19.83;16.67;;;;;;;9.63;95.50;101365.22;4993385;28;20391;-49
2021/11/21 01:00:41;;;;;;;19.98;16.90;;;;;;;9.57;95.14;101358.03;4993534;28;20508;-51
2021/11/21 01:03:12;;;;;;;21.88;19.45;;;;;;;9.50;94.82;101360.09;5008177;28;20042;-49
2021/11/21 01:05:43;;;;;;;17.77;15.15;;;;;;;9.48;95.05;101356.81;4991748;28;20050;-50
2021/11/21 01:08:12;;;;;;;19.35;16.23;;;;;;;9.53;95.01;101354.19;4993443;28;20050;-51
2021/11/21 01:10:41;;;;;;;23.65;21.02;;;;;;;9.51;94.98;101356.31;4993379;28;20050;-49
2021/11/21 01:13:08;;;;;;;21.63;19.00;;;;;;;9.61;95.91;101361.91;4993451;28;20050;-51
2021/11/21 01:15:37;;;;;;;16.92;13.90;;;;;;;9.56;95.18;101359.13;4993522;28;20046;-48
2021/11/21 01:18:05;;;;;;;23.80;20.20;;;;;;;9.50;95.23;101357.38;4993188;28;20057;-49
2021/11/21 01:20:35;;;;;;;19.05;16.35;;;;;;;9.47;95.82;101358.69;4992614;28;20043;-49
2021/11/21 01:23:03;;;;;;;23.50;20.95;;;;;;;9.47;95.37;101366.03;4993043;28;20038;-50
2021/11/21 01:25:31;;;;;;;23.10;20.02;;;;;;;9.56;96.39;101354.50;4992800;28;20493;-49
2021/11/21 01:27:58;;;;;;;24.17;20.38;;;;;;;9.47;95.61;101360.59;4992969;28;20046;-51
2021/11/21 01:30:29;;;;;;;19.20;16.63;;;;;;;9.39;95.87;101357.22;4993034;28;20065;-46
2021/11/21 01:32:58;;;;;;;22.52;17.90;;;;;;;9.38;95.67;101352.88;4992564;28;20125;-50
2021/11/21 01:35:26;;;;;;;23.48;19.92;;;;;;;9.34;95.39;101357.13;4992566;28;20053;-49
2021/11/21 01:37:54;;;;;;;23.02;20.30;;;;;;;9.32;95.82;101353.03;4992875;28;20676;-49
2021/11/21 01:40:23;;;;;;;22.80;20.08;;;;;;;9.30;96.17;101339.66;4992854;28;20057;-50
2021/11/21 01:42:52;;;;;;;19.38;16.30;;;;;;;9.34;95.83;101335.38;4993084;28;20050;-49
2021/11/21 01:45:20;;;;;;;21.38;18.17;;;;;;;9.34;96.05;101337.28;4992822;28;20047;-52
2021/11/21 01:47:48;;;;;;;23.52;19.02;;;;;;;9.36;96.12;101333.25;4992818;28;20053;-49
2021/11/21 01:50:45;;;;;;;26.38;20.27;;;;;;;9.40;95.42;101333.56;4992207;28;20050;-47
2021/11/21 01:53:13;;;;;;;19.75;16.63;;;;;;;9.38;95.62;101331.09;4951645;29;20047;-51
2021/11/21 01:55:42;;;;;;;22.38;18.55;;;;;;;9.42;95.45;101334.13;4951602;29;20047;-49
2021/11/21 01:58:09;;;;;;;21.55;18.30;;;;;;;9.38;95.35;101322.94;4948625;28;20043;-52
2021/11/21 02:00:42;;;;;;;14.85;12.65;;;;;;;9.44;96.80;101315.69;4950616;29;20039;-48
2021/11/21 02:03:09;;;;;;;22.23;18.55;;;;;;;9.45;95.42;101316.50;4951255;29;20059;-51
2021/11/21 02:05:37;;;;;;;22.95;19.38;;;;;;;9.37;95.45;101312.31;4951624;29;20047;-50
2021/11/21 02:08:05;;;;;;;18.13;15.63;;;;;;;9.41;96.15;101310.75;4951799;29;20050;-46
2021/11/21 02:10:34;;;;;;;22.95;18.45;;;;;;;9.35;95.67;101309.81;4951554;29;20149;-52
2021/11/21 02:13:04;;;;;;;22.30;18.17;;;;;;;9.35;95.89;101309.00;4951462;29;20059;-50
2021/11/21 02:15:32;;;;;;;21.58;18.73;;;;;;;9.36;95.51;101305.22;4951444;29;20047;-50
2021/11/21 02:18:00;;;;;;;16.42;13.50;;;;;;;9.36;95.68;101305.22;4951135;29;20047;-49
2021/11/21 02:20:34;;;;;;;21.92;17.98;;;;;;;9.36;95.74;101288.91;4951563;29;20066;-49
2021/11/21 02:23:04;;;;;;;24.65;20.50;;;;;;;9.34;95.61;101285.63;4951532;29;20047;-50
2021/11/21 02:25:32;;;;;;;23.73;19.92;;;;;;;9.33;95.26;101287.53;4951364;28;20043;-46
2021/11/21 02:27:59;;;;;;;14.82;11.45;;;;;;;9.35;96.25;101271.75;4951313;28;20058;-50
2021/11/21 02:30:27;;;;;;;20.67;16.35;;;;;;;9.40;96.87;101271.00;4985345;28;20046;-47
2021/11/21 02:32:55;;;;;;;23.27;19.35;;;;;;;9.39;95.73;101278.34;4992107;28;20055;-50
2021/11/21 02:35:23;;;;;;;18.98;15.57;;;;;;;9.45;95.85;101286.59;4992626;28;20065;-52
2021/11/21 02:37:52;;;;;;;23.00;19.45;;;;;;;9.39;95.81;101272.09;4992650;28;20046;-52
2021/11/21 02:40:20;;;;;;;23.63;18.85;;;;;;;9.35;95.92;101271.75;4992311;28;20073;-49
2021/11/21 02:42:48;;;;;;;24.52;18.88;;;;;;;9.34;95.62;101269.31;4992269;28;20049;-52
2021/11/21 02:45:18;;;;;;;24.00;19.52;;;;;;;9.30;96.19;101263.53;4992099;28;20034;-46
2021/11/21 02:47:46;;;;;;;23.15;19.35;;;;;;;9.35;96.19;101258.16;4995509;28;20046;-50
2021/11/21 02:50:17;;;;;;;20.00;16.42;;;;;;;9.31;96.65;101254.31;4995942;28;20045;-48
2021/11/21 02:52:46;;;;;;;24.52;19.85;;;;;;;9.28;96.16;101254.78;4996200;28;20051;-49
2021/11/21 02:55:14;;;;;;;23.52;20.30;;;;;;;9.30;96.58;101246.38;4995640;28;20042;-52
2021/11/21 02:57:42;;;;;;;24.35;20.17;;;;;;;9.28;96.33;101246.63;4995573;28;20049;-50
2021/11/21 03:00:12;;;;;;;22.30;19.08;;;;;;;9.29;96.51;101234.69;4995498;28;20074;-49
2021/11/21 03:02:41;;;;;;;24.63;20.35;;;;;;;9.32;96.59;101223.31;4994294;28;20038;-49
2021/11/21 03:05:09;;;;;;;24.10;20.45;;;;;;;9.34;96.58;101221.16;4989699;28;20498;-49
2021/11/21 03:07:37;;;;;;;19.67;15.95;;;;;;;9.35;96.41;101230.97;4995411;28;20039;-51
2021/11/21 03:10:06;;;;;;;25.40;19.95;;;;;;;9.35;96.20;101220.09;4995581;28;20054;-48
2021/11/21 03:12:34;;;;;;;25.85;22.10;;;;;;;9.34;96.34;101220.34;4995423;28;20448;-48
2021/11/21 03:15:02;;;;;;;26.20;21.77;;;;;;;9.32;96.49;101223.31;4995502;28;20500;-50
2021/11/21 03:17:31;;;;;;;24.17;20.63;;;;;;;9.29;96.47;101215.66;4994917;28;20485;-51
2021/11/21 03:19:59;;;;;;;25.70;20.77;;;;;;;9.35;97.05;101217.38;4995278;28;20096;-49
2021/11/21 03:22:27;;;;;;;25.55;22.13;;;;;;;9.36;96.32;101218.22;4995198;28;20049;-47
2021/11/21 03:24:54;;;;;;;22.65;19.35;;;;;;;9.32;96.32;101209.72;5010424;28;20042;-50
2021/11/21 03:27:26;;;;;;;26.77;21.55;;;;;;;9.30;96.33;101208.31;4994676;28;20046;-50
2021/11/21 03:29:54;;;;;;;30.15;24.52;;;;;;;9.24;96.87;101201.19;4994835;28;20051;-48
2021/11/21 03:32:23;;;;;;;26.13;22.13;;;;;;;9.26;97.22;101202.56;4994725;28;20076;-51
2021/11/21 03:34:50;;;;;;;20.00;17.02;;;;;;;9.27;97.28;101204.22;4995333;28;20051;-51
2021/11/21 03:37:18;;;;;;;29.10;24.00;;;;;;;9.28;97.10;101194.16;4995050;28;20041;-54
2021/11/21 03:39:46;;;;;;;25.38;21.02;;;;;;;9.36;97.31;101185.56;4981286;28;20065;-49
2021/11/21 03:42:14;;;;;;;25.52;21.45;;;;;;;9.34;97.23;101188.53;4994805;28;20058;-49
2021/11/21 03:44:41;;;;;;;28.13;23.92;;;;;;;9.34;96.61;101187.72;4994713;28;20046;-49
2021/11/21 03:47:09;;;;;;;22.60;18.88;;;;;;;9.36;96.66;101178.22;4994850;28;20407;-49
2021/11/21 03:49:37;;;;;;;27.98;23.70;;;;;;;9.32;97.18;101179.81;4994497;28;20039;-52
2021/11/21 03:52:05;;;;;;;28.10;22.38;;;;;;;9.34;96.95;101174.94;4995049;28;20049;-49
2021/11/21 03:54:32;;;;;;;28.38;24.08;;;;;;;9.29;97.07;101180.31;4994795;28;20039;-49
2021/11/21 03:57:00;;;;;;;25.58;20.50;;;;;;;9.29;96.93;101179.50;4993768;28;20379;-52
2021/11/21 03:59:29;;;;;;;32.30;25.27;;;;;;;9.28;97.17;101166.97;4993778;28;20046;-51
2021/11/21 04:01:58;;;;;;;28.73;24.70;;;;;;;9.36;97.73;101158.38;4994622;28;20046;-49
2021/11/21 04:04:28;;;;;;;30.92;24.88;;;;;;;9.29;97.87;101163.19;4994546;28;20057;-50
2021/11/21 04:06:56;;;;;;;30.33;26.27;;;;;;;9.25;97.72;101167.47;4994568;28;20051;-50
2021/11/21 04:09:23;;;;;;;29.08;23.95;;;;;;;9.26;97.92;101160.94;4994514;28;20046;-49
2021/11/21 04:11:52;;;;;;;31.17;26.52;;;;;;;9.25;97.85;101162.84;4993761;28;20042;-49
2021/11/21 04:14:20;;;;;;;30.02;24.33;;;;;;;9.23;97.73;101158.72;4993972;28;20053;-50
2021/11/21 04:16:48;;;;;;;31.25;24.15;;;;;;;9.20;98.05;101157.34;4994283;28;20049;-50
2021/11/21 04:19:16;;;;;;;32.05;26.33;;;;;;;9.23;98.34;101154.09;4992882;28;20051;-49
2021/11/21 04:21:44;;;;;;;29.30;24.83;;;;;;;9.22;97.92;101157.91;4994066;28;20050;-50
2021/11/21 04:24:15;;;;;;;34.20;28.15;;;;;;;9.22;98.53;101157.09;4994082;28;20038;-49
2021/11/21 04:26:44;;;;;;;29.85;24.52;;;;;;;9.24;98.58;101136.75;4993759;28;20525;-45
2021/11/21 04:29:12;;;;;;;30.65;23.63;;;;;;;9.25;98.44;101135.66;4993782;28;20050;-49
2021/11/21 04:31:39;;;;;;;31.73;26.67;;;;;;;9.22;98.31;101136.16;4993825;28;20073;-47
2021/11/21 04:34:07;;;;;;;34.55;26.70;;;;;;;9.24;98.19;101128.59;4994023;28;20126;-50
2021/11/21 04:36:35;;;;;;;35.97;28.58;;;;;;;9.20;98.48;101141.03;4993963;28;20405;-51
2021/11/21 04:39:04;;;;;;;38.28;28.98;;;;;;;9.19;98.65;101131.25;4994320;28;20060;-53
2021/11/21 04:41:32;;;;;;;28.73;23.15;;;;;;;9.20;98.79;101141.03;4995488;28;20057;-48
2021/11/21 04:44:02;;;;;;;36.13;28.38;;;;;;;9.24;98.74;101133.22;4995623;28;20089;-52
2021/11/21 04:46:30;;;;;;;33.05;25.42;;;;;;;9.25;98.52;101130.22;4995678;28;20046;-49
2021/11/21 04:48:58;;;;;;;36.88;29.42;;;;;;;9.25;98.39;101119.34;4994020;28;20038;-52
2021/11/21 04:51:25;;;;;;;29.52;22.65;;;;;;;9.22;98.81;101119.84;4993666;28;20038;-49
2021/11/21 04:53:53;;;;;;;42.20;31.95;;;;;;;9.17;98.81;101112.44;4993592;28;20051;-50
2021/11/21 04:56:22;;;;;;;38.33;29.90;;;;;;;9.16;99.23;101112.69;4993046;28;20042;-49
2021/11/21 04:58:50;;;;;;;39.13;28.17;;;;;;;9.19;98.92;101109.50;4993160;28;20413;-50
2021/11/21 05:01:19;;;;;;;39.33;30.80;;;;;;;9.14;99.30;101106.72;4993330;28;20050;-48
2021/11/21 05:03:47;;;;;;;41.83;31.90;;;;;;;9.14;99.72;101107.53;5008220;28;20105;-50
2021/11/21 05:06:14;;;;;;;41.55;32.10;;;;;;;9.17;99.43;101108.91;4993456;28;20061;-51
2021/11/21 05:08:42;;;;;;;43.38;31.73;;;;;;;9.22;99.40;101108.16;4992978;28;20493;-50
2021/11/21 05:11:09;;;;;;;43.88;32.90;;;;;;;9.20;99.72;101107.59;4992806;28;20057;-49
2021/11/21 05:13:37;;;;;;;44.22;32.25;;;;;;;9.19;99.22;101114.94;4992910;28;20515;-51
2021/11/21 05:16:05;;;;;;;35.45;27.88;;;;;;;9.19;100.00;101112.22;4993061;28;20493;-51
2021/11/21 05:18:32;;;;;;;41.78;32.25;;;;;;;9.19;100.00;101112.22;4993214;28;20062;-51
2021/11/21 05:21:00;;;;;;;43.00;32.95;;;;;;;9.18;100.00;101107.81;4993320;28;20053;-51
2021/11/21 05:23:28;;;;;;;43.17;33.33;;;;;;;9.16;100.00;101115.41;4993645;28;20046;-51
2021/11/21 05:25:56;;;;;;;41.88;32.47;;;;;;;9.13;100.00;101121.34;4992953;28;20034;-50
2021/11/21 05:28:24;;;;;;;40.40;31.70;;;;;;;9.08;100.00;101126.72;4993045;28;20050;-51
2021/11/21 05:30:52;;;;;;;40.75;32.35;;;;;;;9.07;100.00;101120.47;4992678;28;20104;-50
2021/11/21 05:33:19;;;;;;;39.95;30.17;;;;;;;9.07;100.00;101133.25;4993174;28;20042;-52
2021/11/21 05:35:47;;;;;;;38.28;30.27;;;;;;;9.09;100.00;101141.94;4992720;28;20043;-52
2021/11/21 05:38:15;;;;;;;34.22;25.65;;;;;;;9.07;100.00;101136.78;4992840;28;20129;-51
2021/11/21 05:40:42;;;;;;;28.95;23.10;;;;;;;9.17;100.00;101138.81;4992458;28;20056;-47
2021/11/21 05:43:10;;;;;;;29.38;22.77;;;;;;;9.07;100.00;101135.97;4992683;28;20568;-51
2021/11/21 05:45:42;;;;;;;29.50;23.15;;;;;;;9.02;100.00;101138.59;4992872;28;20061;-51
2021/11/21 05:48:10;;;;;;;24.65;19.83;;;;;;;9.04;100.00;101125.56;4992992;28;20069;-53
2021/11/21 05:50:37;;;;;;;23.10;18.80;;;;;;;9.03;100.00;101123.94;4992603;28;20042;-50
2021/11/21 05:53:05;;;;;;;25.73;18.95;;;;;;;9.02;100.00;101125.84;4992560;28;20054;-52
2021/11/21 05:55:33;;;;;;;21.35;17.02;;;;;;;9.07;100.00;101122.38;4992398;28;20042;-52
2021/11/21 05:58:00;;;;;;;23.45;18.05;;;;;;;9.06;100.00;101132.41;4992830;28;20049;-49
2021/11/21 06:00:28;;;;;;;23.55;17.05;;;;;;;9.03;100.00;101121.22;4993077;28;20045;-49
2021/11/21 06:02:57;;;;;;;21.55;16.80;;;;;;;9.05;100.00;101124.50;4992866;28;20046;-51
2021/11/21 06:05:26;;;;;;;22.33;16.17;;;;;;;9.08;100.00;101124.00;4992732;28;20069;-51
2021/11/21 06:07:53;;;;;;;20.48;16.45;;;;;;;9.09;100.00;101120.19;4992375;28;20042;-53
2021/11/21 06:10:21;;;;;;;20.50;15.80;;;;;;;9.06;100.00;101110.66;4992311;28;20058;-53
2021/11/21 06:12:49;;;;;;;21.92;16.25;;;;;;;9.07;100.00;101117.75;4992710;28;20046;-52
2021/11/21 06:15:16;;;;;;;22.55;17.17;;;;;;;9.11;100.00;101118.06;4992717;28;20042;-54
2021/11/21 06:17:45;;;;;;;22.25;17.00;;;;;;;9.11;100.00;101118.06;4992426;28;20038;-52
2021/11/21 06:20:13;;;;;;;23.30;16.73;;;;;;;9.09;100.00;101117.47;4992557;28;20056;-50
2021/11/21 06:22:41;;;;;;;24.23;17.88;;;;;;;9.08;100.00;101124.00;5010822;28;20050;-51
2021/11/21 06:25:10;;;;;;;21.70;16.48;;;;;;;9.09;100.00;101131.06;4995859;28;20035;-51
2021/11/21 06:27:38;;;;;;;21.13;16.55;;;;;;;9.09;100.00;101126.47;4996122;28;20039;-48
2021/11/21 06:30:07;;;;;;;21.88;17.45;;;;;;;9.10;100.00;101114.53;4996188;28;20049;-47
2021/11/21 06:32:35;;;;;;;23.55;17.30;;;;;;;9.10;100.00;101116.44;4996103;28;20042;-51
2021/11/21 06:35:03;;;;;;;22.08;16.42;;;;;;;9.10;100.00;101119.97;4996138;28;20042;-51
2021/11/21 06:37:31;;;;;;;22.58;17.83;;;;;;;9.09;100.00;101128.34;4996073;28;20050;-51
2021/11/21 06:39:59;;;;;;;22.90;17.42;;;;;;;9.07;100.00;101133.25;4995736;28;20046;-50
2021/11/21 06:42:26;;;;;;;23.45;17.13;;;;;;;9.05;100.00;101136.19;4996022;28;20050;-55
2021/11/21 06:44:54;;;;;;;19.92;16.08;;;;;;;9.06;100.00;101120.72;4996212;28;20049;-51
2021/11/21 06:47:22;;;;;;;23.17;17.27;;;;;;;9.07;100.00;101127.81;4994449;28;20433;-51
2021/11/21 06:49:50;;;;;;;22.33;17.58;;;;;;;9.09;100.00;101114.75;4996083;28;20060;-52
2021/11/21 06:52:19;;;;;;;22.65;17.65;;;;;;;9.07;100.00;101109.59;4995522;28;20539;-48
2021/11/21 06:54:46;;;;;;;22.63;16.38;;;;;;;9.07;100.00;101123.19;4996025;28;20066;-53
2021/11/21 06:57:15;;;;;;;21.13;15.63;;;;;;;9.05;100.00;101116.34;4995627;28;20042;-52
2021/11/21 06:59:43;;;;;;;20.63;15.82;;;;;;;9.06;100.00;101121.53;4994015;28;20101;-52
2021/11/21 07:02:10;;;;;;;19.17;14.77;;;;;;;9.08;100.00;101115.84;4995764;28;20073;-50
2021/11/21 07:04:38;;;;;;;19.95;15.82;;;;;;;9.12;100.00;101120.53;4995301;28;20118;-50
2021/11/21 07:07:08;;;;;;;19.83;14.60;;;;;;;9.13;100.00;101127.59;4995144;28;20038;-51
2021/11/21 07:09:36;;;;;;;19.15;14.75;;;;;;;9.16;100.00;101126.28;4995246;28;20067;-53
2021/11/21 07:12:04;;;;;;;19.42;13.98;;;;;;;9.17;100.00;101127.94;4995327;28;20046;-51
2021/11/21 07:14:35;;;;;;;18.42;13.85;;;;;;;9.18;100.00;101127.66;4995332;28;20045;-52
2021/11/21 07:17:03;;;;;;;19.58;13.77;;;;;;;9.18;100.00;101129.56;4995182;28;20039;-47
2021/11/21 07:19:31;;;;;;;20.65;14.25;;;;;;;9.16;100.00;101138.00;4995333;28;20047;-50
2021/11/21 07:21:59;;;;;;;17.92;11.90;;;;;;;9.13;100.00;101135.75;4994594;28;20041;-51
2021/11/21 07:24:28;;;;;;;17.98;13.15;;;;;;;9.13;100.00;101135.75;4995365;28;20474;-52
2021/11/21 07:26:57;;;;;;;17.70;12.98;;;;;;;9.14;100.00;101139.31;4994697;28;20046;-51
2021/11/21 07:29:28;;;;;;;16.15;11.95;;;;;;;9.14;100.00;101147.47;4994957;28;20053;-53
2021/11/21 07:31:58;;;;;;;17.25;12.73;;;;;;;9.14;100.00;101158.34;4994539;28;20058;-51
2021/11/21 07:34:26;;;;;;;17.27;12.75;;;;;;;9.12;100.00;101147.72;4994747;28;20097;-50
2021/11/21 07:36:54;;;;;;;17.20;12.52;;;;;;;9.11;100.00;101156.13;4994986;28;20053;-52
2021/11/21 07:39:22;;;;;;;18.02;12.80;;;;;;;9.11;100.00;101156.13;4995060;28;20035;-51
2021/11/21 07:41:50;;;;;;;15.77;11.40;;;;;;;9.12;100.00;101152.34;4994942;28;20041;-52
2021/11/21 07:44:18;;;;;;;16.42;12.00;;;;;;;9.13;100.00;101151.25;5009700;28;20041;-48
2021/11/21 07:46:46;;;;;;;16.48;12.43;;;;;;;9.14;100.00;101144.75;4994599;28;20068;-52
2021/11/21 07:49:14;;;;;;;15.95;11.50;;;;;;;9.14;100.00;101145.59;4994537;28;20104;-51
2021/11/21 07:51:42;;;;;;;16.98;12.10;;;;;;;9.14;100.00;101155.63;4994310;28;20049;-52
2021/11/21 07:54:09;;;;;;;17.10;12.07;;;;;;;9.14;100.00;101156.44;4994380;28;20422;-51
2021/11/21 07:56:37;;;;;;;15.60;11.38;;;;;;;9.17;100.00;101155.94;4994358;28;20045;-49
2021/11/21 07:59:05;;;;;;;16.92;11.43;;;;;;;9.17;100.00;101155.94;4994760;28;20058;-51
2021/11/21 08:01:32;;;;;;;18.35;11.70;;;;;;;9.17;100.00;101166.00;4995680;28;20441;-47
2021/11/21 08:04:00;;;;;;;17.20;12.18;;;;;;;9.17;100.00;101164.09;4994007;28;20069;-49
2021/11/21 08:06:28;;;;;;;17.55;11.85;;;;;;;9.17;100.00;101155.94;4994112;28;20065;-49
2021/11/21 08:08:56;;;;;;;15.43;10.73;;;;;;;9.17;100.00;101166.81;4994333;28;20485;-50
2021/11/21 08:11:23;;;;;;;16.83;11.98;;;;;;;9.17;100.00;101166.81;4994306;28;20417;-52
2021/11/21 08:13:51;;;;;;;16.45;11.48;;;;;;;9.18;100.00;101173.88;4994210;28;20046;-49
2021/11/21 08:16:18;;;;;;;16.10;11.75;;;;;;;9.17;100.00;101172.25;4994082;28;20530;-50
2021/11/21 08:18:46;;;;;;;17.33;12.20;;;;;;;9.19;100.00;101180.19;4993659;28;20475;-49
2021/11/21 08:21:14;;;;;;;15.50;11.77;;;;;;;9.20;100.00;101181.00;4994044;28;20060;-50
2021/11/21 08:23:42;;;;;;;19.58;12.57;;;;;;;9.20;100.00;101176.38;4994028;28;20039;-49
2021/11/21 08:26:10;;;;;;;18.13;11.90;;;;;;;9.19;100.00;101174.72;4994926;28;20504;-50
2021/11/21 08:28:40;;;;;;;16.60;12.98;;;;;;;9.19;100.00;101180.19;4993973;28;20054;-50
2021/11/21 08:31:13;;;;;;;16.35;12.63;;;;;;;9.20;100.00;101181.81;4993572;28;20069;-49
2021/11/21 08:33:41;;;;;;;16.38;12.45;;;;;;;9.19;100.00;101180.19;4992493;28;20038;-52
2021/11/21 08:36:08;;;;;;;18.98;12.07;;;;;;;9.20;100.00;101179.09;4993737;28;20055;-48
2021/11/21 08:38:36;;;;;;;18.10;12.60;;;;;;;9.21;100.00;101183.44;4994069;28;20050;-52
2021/11/21 08:41:03;;;;;;;16.73;12.63;;;;;;;9.23;100.00;101184.00;4993535;28;20078;-54
2021/11/21 08:43:31;;;;;;;20.63;12.95;;;;;;;9.23;100.00;101189.47;4993377;28;20050;-52
2021/11/21 08:45:58;;;;;;;18.77;12.43;;;;;;;9.23;100.00;101191.34;4993501;28;20058;-54
2021/11/21 08:48:26;;;;;;;21.05;13.13;;;;;;;9.24;100.00;101198.47;4993605;28;20069;-51
2021/11/21 08:50:56;;;;;;;15.73;11.23;;;;;;;9.23;100.00;101203.06;4993217;28;20042;-51
2021/11/21 08:53:24;;;;;;;15.63;11.45;;;;;;;9.21;100.00;101199.75;4993799;28;20054;-52
2021/11/21 08:55:52;;;;;;;16.73;11.82;;;;;;;9.21;100.00;101199.75;4993249;28;20050;-52
2021/11/21 08:58:19;;;;;;;19.23;11.38;;;;;;;9.20;100.00;101198.13;4993383;28;20428;-51
2021/11/21 09:00:47;;;;;;;16.77;11.20;;;;;;;9.22;100.00;101193.25;4993453;28;20042;-53
2021/11/21 09:03:14;;;;;;;16.73;10.90;;;;;;;9.22;100.00;101197.88;4979530;28;20477;-51
2021/11/21 09:05:42;;;;;;;17.90;10.07;;;;;;;9.18;100.00;101195.63;4993309;28;20043;-51
2021/11/21 09:08:14;;;;;;;15.63;9.23;;;;;;;9.18;100.00;101200.25;4993113;28;20038;-52
2021/11/21 09:10:42;;;;;;;15.75;9.40;;;;;;;9.17;100.00;101196.72;4993126;28;20587;-51
2021/11/21 09:13:09;;;;;;;15.82;9.18;;;;;;;9.19;100.00;101196.47;4992889;28;20062;-51
2021/11/21 09:15:37;;;;;;;15.93;7.80;;;;;;;9.20;100.00;101200.84;4979694;28;20482;-54
2021/11/21 09:18:05;;;;;;;16.63;8.10;;;;;;;9.19;100.00;101201.94;4992981;28;20045;-54
2021/11/21 09:20:32;;;;;;;15.98;7.22;;;;;;;9.15;100.00;101200.78;4993213;28;20042;-52
2021/11/21 09:23:03;;;;;;;13.07;6.65;;;;;;;9.17;100.00;101207.59;4993321;28;20042;-51
2021/11/21 09:25:31;;;;;;;13.00;6.25;;;;;;;9.14;100.00;101210.81;4992828;28;20536;-52
2021/11/21 09:27:58;;;;;;;13.45;5.40;;;;;;;9.14;100.00;101207.28;4993169;28;20050;-52
2021/11/21 09:30:26;;;;;;;19.92;5.95;;;;;;;9.12;100.00;101209.44;4992640;28;20042;-52
2021/11/21 09:32:54;;;;;;;14.43;5.20;;;;;;;9.16;100.00;101210.56;4992954;28;20046;-55
2021/11/21 09:35:22;;;;;;;14.65;4.93;;;;;;;9.14;100.00;101215.44;4992934;28;20039;-53
2021/11/21 09:37:50;;;;;;;12.90;4.82;;;;;;;9.15;100.00;101214.34;4993177;28;20035;-52
2021/11/21 09:40:18;;;;;;;16.50;4.70;;;;;;;9.12;100.00;101223.84;4992686;28;20049;-50
2021/11/21 09:42:46;;;;;;;11.45;4.55;;;;;;;9.15;100.00;101217.06;4992764;28;20054;-52
2021/11/21 09:45:16;;;;;;;11.07;4.30;;;;;;;9.14;98.44;101207.28;4992620;28;20109;-54
2021/11/21 09:47:56;;;;;;;11.45;4.30;;;;;;;9.16;99.24;101214.13;4992484;28;20070;-50
2021/11/21 09:50:29;;;;;;;12.93;4.32;;;;;;;9.19;98.40;101223.69;4992946;28;20196;-51
2021/11/21 09:52:58;;;;;;;15.98;4.60;;;;;;;9.19;97.53;101218.22;4992699;28;20080;-49
2021/11/21 09:55:26;;;;;;;15.27;4.22;;;;;;;9.18;97.41;101222.00;4994476;28;20057;-52
2021/11/21 09:57:53;;;;;;;11.38;3.90;;;;;;;9.21;97.49;101223.41;4997759;28;20509;-50
2021/11/21 10:00:26;;;;;;;9.60;3.78;;;;;;;9.23;97.37;101227.53;4996536;28;20519;-52
2021/11/21 10:03:08;;;;;;;9.85;3.33;;;;;;;9.23;96.73;101213.94;4996092;28;20505;-53
2021/11/21 10:05:46;;;;;;;12.65;4.30;;;;;;;9.24;96.53;101221.03;4996720;28;20073;-51
2021/11/21 10:08:19;;;;;;;16.25;4.07;;;;;;;9.25;96.25;101214.50;4996330;28;20049;-52
2021/11/21 10:11:10;;;;;;;15.07;4.53;;;;;;;9.27;95.79;101219.69;4996644;28;20046;-54
2021/11/21 10:13:51;;;;;;;13.00;4.25;;;;;;;9.26;94.93;101216.16;4997821;28;20047;-50
2021/11/21 10:16:23;;;;;;;16.58;4.22;;;;;;;9.26;94.74;101221.59;5014830;28;20050;-46
2021/11/21 10:18:55;;;;;;;12.38;4.10;;;;;;;9.28;95.00;101221.34;4997661;28;20050;-52
2021/11/21 10:21:25;;;;;;;12.45;3.88;;;;;;;9.27;94.52;101220.53;4997227;28;20049;-52
2021/11/21 10:24:13;;;;;;;12.57;4.15;;;;;;;9.26;94.51;101218.88;4996293;28;20509;-54
2021/11/21 10:26:42;;;;;;;13.68;3.55;;;;;;;9.23;92.50;101219.38;4996012;28;20436;-54
2021/11/21 10:29:37;;;;;;;13.05;3.40;;;;;;;9.18;92.91;101205.69;4996221;28;20058;-52
2021/11/21 10:32:15;;;;;;;14.57;4.87;;;;;;;9.22;93.84;101212.28;4994263;28;20060;-53
2021/11/21 10:34:52;;;;;;;11.90;3.75;;;;;;;9.22;93.01;101206.84;4996106;28;20113;-50
2021/11/21 10:37:34;;;;;;;12.45;3.55;;;;;;;9.17;92.20;101199.44;4995812;28;20038;-54
2021/11/21 10:40:07;;;;;;;11.40;3.60;;;;;;;9.18;93.18;101200.25;4996317;28;20398;-51
2021/11/21 10:42:36;;;;;;;12.10;3.47;;;;;;;9.22;92.84;101203.31;4995777;28;20043;-53
2021/11/21 10:45:06;;;;;;;14.02;4.05;;;;;;;9.23;91.45;101204.94;4995997;28;20125;-53
2021/11/21 10:47:50;;;;;;;12.68;3.60;;;;;;;9.25;90.16;101202.81;4995908;28;20045;-51
2021/11/21 10:50:31;;;;;;;13.68;3.70;;;;;;;9.26;89.29;101204.44;4996090;28;20053;-52
2021/11/21 10:53:01;;;;;;;12.48;3.47;;;;;;;9.29;90.96;101210.22;4995670;28;20125;-47
2021/11/21 10:55:29;;;;;;;16.05;3.75;;;;;;;9.35;90.53;101216.53;4995969;28;20405;-51
2021/11/21 10:58:13;;;;;;;13.02;3.83;;;;;;;9.32;88.99;101212.44;4995580;28;20046;-54
2021/11/21 11:00:41;;;;;;;19.83;4.13;;;;;;;9.29;87.62;101214.84;4995615;28;20489;-52
2021/11/21 11:03:20;;;;;;;17.40;3.97;;;;;;;9.25;87.75;101208.25;4995569;28;20128;-50
2021/11/21 11:05:48;;;;;;;14.45;3.63;;;;;;;9.21;86.49;101215.25;4995744;28;20110;-52
2021/11/21 11:08:31;;;;;;;14.50;4.25;;;;;;;9.21;86.81;101221.50;4995019;28;20449;-52
2021/11/21 11:11:00;;;;;;;16.88;3.58;;;;;;;9.21;87.25;101223.41;4995561;28;20061;-52
2021/11/21 11:13:30;;;;;;;17.40;3.35;;;;;;;9.19;85.51;101220.94;5009882;28;20064;-51
2021/11/21 11:15:58;;;;;;;16.60;3.83;;;;;;;9.19;86.11;101220.94;4995039;28;20043;-51
2021/11/21 11:18:28;;;;;;;17.75;3.83;;;;;;;9.20;85.85;101219.06;4995407;28;20054;-49
2021/11/21 11:20:58;;;;;;;13.30;3.30;;;;;;;9.18;84.88;101228.25;4995577;28;20516;-49
2021/11/21 11:23:26;;;;;;;16.73;3.25;;;;;;;9.22;85.72;101225.06;4995010;28;20416;-47
2021/11/21 11:25:58;;;;;;;18.58;3.90;;;;;;;9.26;86.10;101218.03;4994951;28;20055;-48